createdAt,value
2023-05-20T00:03:01.506Z,2.1
2023-05-20T00:18:24.785Z,2.3
2023-05-20T00:33:48.092Z,2.4
2023-05-20T00:49:11.386Z,2.3
2023-05-20T01:04:34.676Z,3.1
2023-05-20T01:19:57.977Z,2.4
2023-05-20T01:35:21.288Z,2.8
2023-05-20T01:50:44.574Z,3
2023-05-20T02:06:07.879Z,3.6
2023-05-20T02:21:31.179Z,3.5
2023-05-20T02:36:53.488Z,4.5
2023-05-20T02:52:16.732Z,4.3
2023-05-20T03:07:39.990Z,4.5
2023-05-20T03:23:03.244Z,5
2023-05-20T03:38:26.491Z,4.7
2023-05-20T03:53:49.754Z,4.7
2023-05-20T04:09:13.018Z,4.7
2023-05-20T04:24:36.257Z,5.3
2023-05-20T04:39:59.507Z,5.1
2023-05-20T04:55:22.770Z,5.4
2023-05-20T05:10:46.020Z,5.1
2023-05-20T05:26:09.276Z,6.4
2023-05-20T05:41:32.541Z,5.7
2023-05-20T05:56:54.796Z,6.5
2023-05-20T06:12:18.054Z,6.7
2023-05-20T06:27:41.307Z,6.8
2023-05-20T06:29:04.729Z,8.5
2023-05-20T06:30:28.117Z,10.1
2023-05-20T06:31:51.536Z,10.8
2023-05-20T06:33:14.934Z,10.9
2023-05-20T06:34:38.358Z,10.9
2023-05-20T06:36:01.766Z,10.4
2023-05-20T06:37:25.167Z,10.9
2023-05-20T06:38:48.587Z,10.6
2023-05-20T06:40:11.992Z,10.1
2023-05-20T06:41:35.408Z,10.4
2023-05-20T06:42:57.820Z,10.3
2023-05-20T06:44:21.227Z,9.6
2023-05-20T06:45:44.631Z,10.7
2023-05-20T06:47:08.051Z,10.1
2023-05-20T06:48:31.446Z,13.5
2023-05-20T06:49:54.860Z,17.6
2023-05-20T06:51:18.269Z,15.4
2023-05-20T06:52:41.675Z,17.1
2023-05-20T06:54:05.098Z,11.1
2023-05-20T06:55:28.505Z,9.9
2023-05-20T06:56:51.919Z,9.2
2023-05-20T06:58:15.321Z,9.7
2023-05-20T06:59:38.728Z,10.3
2023-05-20T07:01:01.151Z,9.9
2023-05-20T07:02:24.549Z,9.7
2023-05-20T07:03:47.961Z,10.1
2023-05-20T07:05:11.363Z,10.3
2023-05-20T07:06:34.776Z,10
2023-05-20T07:07:58.196Z,10.2
2023-05-20T07:09:20.626Z,10.6
2023-05-20T07:10:44.036Z,9.9
2023-05-20T07:12:07.447Z,10.6
2023-05-20T07:13:30.838Z,10.1
2023-05-20T07:14:54.255Z,10.2
2023-05-20T07:16:17.669Z,10.6
2023-05-20T07:17:41.074Z,10.7
2023-05-20T07:19:04.475Z,11.2
2023-05-20T07:20:27.892Z,10.8
2023-05-20T07:21:51.292Z,10.6
2023-05-20T07:23:14.696Z,10.5
2023-05-20T07:24:38.116Z,10.3
2023-05-20T07:26:01.514Z,10.4
2023-05-20T07:27:23.945Z,10.3
2023-05-20T07:28:47.356Z,10.5
2023-05-20T07:30:10.769Z,10.5
2023-05-20T07:31:34.174Z,10.3
2023-05-20T07:32:57.576Z,10.4
2023-05-20T07:34:20.989Z,10.4
2023-05-20T07:35:44.390Z,10.4
2023-05-20T07:37:07.810Z,9.9
2023-05-20T07:38:31.211Z,10.4
2023-05-20T07:39:54.620Z,10.1
2023-05-20T07:41:18.025Z,10.7
2023-05-20T07:42:41.436Z,10.4
2023-05-20T07:44:04.849Z,10.8
2023-05-20T07:45:27.276Z,10.7
2023-05-20T07:46:50.675Z,10.1
2023-05-20T07:48:14.083Z,10.7
2023-05-20T07:49:37.503Z,10.2
2023-05-20T07:51:00.903Z,10.8
2023-05-20T07:52:24.323Z,10.3
2023-05-20T07:53:47.722Z,10.8
2023-05-20T07:55:11.128Z,11.1
2023-05-20T07:56:34.541Z,10.9
2023-05-20T07:57:57.950Z,10.6
2023-05-20T07:59:21.364Z,11.1
2023-05-20T08:00:44.764Z,10.5
2023-05-20T08:02:08.166Z,10
2023-05-20T08:03:30.594Z,10.8
2023-05-20T08:04:54.005Z,11.5
2023-05-20T08:06:17.417Z,11
2023-05-20T08:07:40.819Z,10.6
2023-05-20T08:09:04.225Z,10.2
2023-05-20T08:10:27.644Z,10.7
2023-05-20T08:11:51.042Z,10.9
2023-05-20T08:13:14.450Z,10.5
2023-05-20T08:14:37.872Z,10.1
2023-05-20T08:16:01.276Z,10.4
2023-05-20T08:17:24.681Z,10.7
2023-05-20T08:18:48.099Z,10.9
2023-05-20T08:20:11.503Z,10.4
2023-05-20T08:21:33.936Z,10.2
2023-05-20T08:22:57.330Z,9.9
2023-05-20T08:24:20.744Z,10.8
2023-05-20T08:25:44.152Z,10
2023-05-20T08:27:07.569Z,10.5
2023-05-20T08:28:30.962Z,10.5
2023-05-20T08:29:54.373Z,10.4
2023-05-20T08:31:17.785Z,10.5
2023-05-20T08:32:41.184Z,9.9
2023-05-20T08:34:04.589Z,10.1
2023-05-20T08:35:28.009Z,10.9
2023-05-20T08:36:51.411Z,10.2
2023-05-20T08:38:14.824Z,9.9
2023-05-20T08:39:37.253Z,9.8
2023-05-20T08:41:00.677Z,10.3
2023-05-20T08:42:24.071Z,10.1
2023-05-20T08:43:47.483Z,10.1
2023-05-20T08:45:10.904Z,10
2023-05-20T08:46:34.309Z,9.9
2023-05-20T08:47:57.716Z,10.2
2023-05-20T08:49:21.126Z,9.5
2023-05-20T08:50:44.537Z,9.3
2023-05-20T08:52:07.935Z,9.7
2023-05-20T08:53:31.352Z,10.3
2023-05-20T08:54:54.751Z,10.6
2023-05-20T08:56:18.156Z,10
2023-05-20T08:57:40.580Z,10.3
2023-05-20T08:59:03.986Z,10.5
2023-05-20T09:00:27.410Z,10.9
2023-05-20T09:01:50.815Z,9.9
2023-05-20T09:03:14.230Z,10
2023-05-20T09:04:37.631Z,10.4
2023-05-20T09:06:01.034Z,9.6
2023-05-20T09:07:24.449Z,10.1
2023-05-20T09:08:47.848Z,10.5
2023-05-20T09:10:11.266Z,9.7
2023-05-20T09:11:34.678Z,10.7
2023-05-20T09:12:58.084Z,10.8
2023-05-20T09:15:44.903Z,10.6
2023-05-20T09:17:07.324Z,10.1
2023-05-20T09:18:30.741Z,11.1
2023-05-20T09:19:54.134Z,10.2
2023-05-20T09:21:17.541Z,10.4
2023-05-20T09:22:40.944Z,10.5
2023-05-20T09:24:04.358Z,11.1
2023-05-20T09:25:27.774Z,9.9
2023-05-20T09:26:51.174Z,10.5
2023-05-20T09:28:14.594Z,10
2023-05-20T09:29:37.987Z,10.6
2023-05-20T09:31:01.403Z,10.6
2023-05-20T09:32:24.815Z,10.4
2023-05-20T09:33:48.225Z,11.4
2023-05-20T09:35:10.633Z,10.9
2023-05-20T09:36:34.046Z,10.3
2023-05-20T09:37:57.453Z,10.4
2023-05-20T09:39:20.870Z,10.9
2023-05-20T09:40:44.272Z,9.9
2023-05-20T09:42:07.684Z,9.9
2023-05-20T09:43:31.084Z,10.1
2023-05-20T09:44:54.486Z,10.4
2023-05-20T09:46:17.921Z,10.2
2023-05-20T09:47:41.310Z,10.2
2023-05-20T09:49:04.720Z,10.5
2023-05-20T09:50:28.147Z,10
2023-05-20T09:51:51.552Z,10.3
2023-05-20T09:53:13.974Z,10.6
2023-05-20T09:54:37.390Z,10.4
2023-05-20T09:56:00.799Z,9.9
2023-05-20T09:57:24.211Z,10.1
2023-05-20T09:58:47.612Z,10.2
2023-05-20T10:00:11.015Z,9.9
2023-05-20T10:01:34.419Z,10.3
2023-05-20T10:02:57.000Z,10.3
2023-05-20T10:04:21.253Z,9.5
2023-05-20T10:05:44.657Z,10.3
2023-05-20T10:07:08.063Z,9.6
2023-05-20T10:08:31.480Z,9.9
2023-05-20T10:09:54.889Z,9.6
2023-05-20T10:11:17.296Z,9.7
2023-05-20T10:12:40.709Z,9.5
2023-05-20T10:14:04.112Z,9.5
2023-05-20T10:15:27.539Z,10.4
2023-05-20T10:16:50.939Z,9.6
2023-05-20T10:18:14.343Z,10.3
2023-05-20T10:19:37.750Z,10
2023-05-20T10:21:01.167Z,10.4
2023-05-20T10:22:24.578Z,9.5
2023-05-20T10:23:47.979Z,9.8
2023-05-20T10:25:11.397Z,8.6
2023-05-20T10:26:34.806Z,9.3
2023-05-20T10:27:58.212Z,9.6
2023-05-20T10:29:20.626Z,9.9
2023-05-20T10:30:44.045Z,9.1
2023-05-20T10:32:07.454Z,9.2
2023-05-20T10:33:30.859Z,9.3
2023-05-20T10:34:54.266Z,9.3
2023-05-20T10:36:17.674Z,9.5
2023-05-20T10:37:41.098Z,9.3
2023-05-20T10:39:04.492Z,9
2023-05-20T10:40:27.918Z,9.7
2023-05-20T10:41:51.326Z,9.5
2023-05-20T10:43:14.732Z,9.3
2023-05-20T10:44:38.134Z,9
2023-05-20T10:46:01.537Z,9.2
2023-05-20T10:47:23.965Z,9.3
2023-05-20T10:48:47.372Z,8.7
2023-05-20T10:50:10.769Z,8.4
2023-05-20T10:51:34.185Z,8.2
2023-05-20T10:52:57.597Z,8.4
2023-05-20T10:54:21.012Z,8.1
2023-05-20T10:55:44.416Z,8.1
2023-05-20T10:57:07.813Z,7.8
2023-05-20T10:58:31.233Z,8.3
2023-05-20T10:59:54.637Z,7.9
2023-05-20T11:01:18.052Z,7.9
2023-05-20T11:02:41.456Z,8.4
2023-05-20T11:04:04.854Z,7.7
2023-05-20T11:05:27.293Z,7.9
2023-05-20T11:06:50.685Z,8.2
2023-05-20T11:08:14.103Z,7.5
2023-05-20T11:09:37.511Z,7.6
2023-05-20T11:11:00.910Z,8
2023-05-20T11:12:24.334Z,8
2023-05-20T11:13:47.743Z,8
2023-05-20T11:15:11.136Z,8
2023-05-20T11:16:34.559Z,8.2
2023-05-20T11:17:57.968Z,7.9
2023-05-20T11:19:21.363Z,7.7
2023-05-20T11:20:44.785Z,7.4
2023-05-20T11:22:08.195Z,8
2023-05-20T11:23:30.612Z,8.2
2023-05-20T11:24:54.016Z,7.7
2023-05-20T11:26:17.424Z,7.9
2023-05-20T11:27:40.828Z,8.1
2023-05-20T11:29:04.232Z,8.1
2023-05-20T11:30:27.652Z,8.1
2023-05-20T11:31:51.062Z,7.4
2023-05-20T11:33:14.477Z,7.2
2023-05-20T11:34:37.878Z,7.3
2023-05-20T11:36:01.275Z,7.3
2023-05-20T11:37:24.696Z,7.5
2023-05-20T11:38:48.094Z,7.5
2023-05-20T11:40:11.516Z,7.2
2023-05-20T11:41:33.937Z,7.4
2023-05-20T11:42:57.338Z,7.7
2023-05-20T11:44:20.750Z,8.4
2023-05-20T11:45:44.162Z,7.8
2023-05-20T11:47:07.574Z,8.1
2023-05-20T11:48:30.018Z,8.2
2023-05-20T11:49:53.413Z,7.6
2023-05-20T11:51:16.823Z,7.8
2023-05-20T11:52:40.243Z,7.4
2023-05-20T11:54:03.641Z,7.7
2023-05-20T11:55:27.057Z,7.7
2023-05-20T11:56:50.473Z,7.6
2023-05-20T11:58:13.877Z,7.9
2023-05-20T11:59:37.293Z,8.4
2023-05-20T12:01:00.685Z,7.5
2023-05-20T12:02:24.100Z,8.1
2023-05-20T12:03:47.519Z,7.9
2023-05-20T12:05:10.913Z,7.5
2023-05-20T12:06:33.355Z,8.1
2023-05-20T12:07:56.757Z,8
2023-05-20T12:09:20.000Z,8.4
2023-05-20T12:10:43.586Z,7.7
2023-05-20T12:12:06.989Z,7.6
2023-05-20T12:13:30.402Z,7.2
2023-05-20T12:14:53.796Z,7.6
2023-05-20T12:16:17.208Z,7.9
2023-05-20T12:17:40.611Z,7.7
2023-05-20T12:20:27.427Z,7.9
2023-05-20T12:21:50.841Z,7.8
2023-05-20T12:23:14.241Z,6.8
2023-05-20T12:24:36.672Z,7.7
2023-05-20T12:26:00.075Z,7.6
2023-05-20T12:27:23.478Z,7.5
2023-05-20T12:28:46.891Z,7.7
2023-05-20T12:30:10.305Z,7.5
2023-05-20T12:31:33.709Z,8.1
2023-05-20T12:32:57.119Z,8.1
2023-05-20T12:34:20.540Z,8
2023-05-20T12:35:43.952Z,7.6
2023-05-20T12:37:07.369Z,8.1
2023-05-20T12:38:30.770Z,8.4
2023-05-20T12:39:54.181Z,8.2
2023-05-20T12:41:17.590Z,8.4
2023-05-20T12:42:40.019Z,8
2023-05-20T12:44:03.422Z,8.3
2023-05-20T12:45:26.841Z,8
2023-05-20T12:46:50.246Z,8.3
2023-05-20T12:48:13.655Z,8.3
2023-05-20T12:49:37.059Z,7.8
2023-05-20T12:51:00.479Z,7.8
2023-05-20T12:52:23.873Z,8
2023-05-20T12:53:47.310Z,8
2023-05-20T12:55:10.699Z,8.3
2023-05-20T12:56:34.106Z,7.8
2023-05-20T12:57:57.528Z,7.9
2023-05-20T12:59:20.929Z,7.9
2023-05-20T13:00:43.344Z,7.7
2023-05-20T13:02:06.765Z,8.1
2023-05-20T13:03:30.161Z,8.2
2023-05-20T13:04:53.587Z,8.3
2023-05-20T13:06:16.990Z,8.3
2023-05-20T13:07:40.401Z,8.2
2023-05-20T13:09:03.802Z,7.7
2023-05-20T13:10:27.204Z,8.2
2023-05-20T13:11:50.616Z,7.9
2023-05-20T13:13:14.029Z,7.9
2023-05-20T13:14:37.449Z,8.1
2023-05-20T13:16:00.848Z,7.3
2023-05-20T13:17:24.256Z,7.5
2023-05-20T13:18:46.678Z,8.1
2023-05-20T13:20:10.098Z,7.7
2023-05-20T13:21:33.495Z,7.2
2023-05-20T13:22:56.905Z,8
2023-05-20T13:24:20.299Z,7.2
2023-05-20T13:25:43.713Z,7.6
2023-05-20T13:27:07.122Z,8.3
2023-05-20T13:28:30.534Z,8
2023-05-20T13:29:53.935Z,7.5
2023-05-20T13:31:17.354Z,7.7
2023-05-20T13:32:40.760Z,7.7
2023-05-20T13:34:04.185Z,7.4
2023-05-20T13:35:27.589Z,7.6
2023-05-20T13:36:49.999Z,7.8
2023-05-20T13:38:13.419Z,7.8
2023-05-20T13:39:36.829Z,7.1
2023-05-20T13:41:00.226Z,6.9
2023-05-20T13:42:23.631Z,6.9
2023-05-20T13:43:47.059Z,7.1
2023-05-20T13:45:10.450Z,7.5
2023-05-20T13:46:33.863Z,7.6
2023-05-20T13:47:57.276Z,7.8
2023-05-20T13:49:20.685Z,7.4
2023-05-20T13:50:44.104Z,7.2
2023-05-20T13:52:07.496Z,7.5
2023-05-20T13:53:30.921Z,7.4
2023-05-20T13:54:53.342Z,6.9
2023-05-20T13:56:16.742Z,7.1
2023-05-20T13:57:40.152Z,7.5
2023-05-20T13:59:03.564Z,7.1
2023-05-20T14:00:26.969Z,7.2
2023-05-20T14:01:50.388Z,7.4
2023-05-20T14:03:13.787Z,7.3
2023-05-20T14:04:37.190Z,7.1
2023-05-20T14:06:00.602Z,7.4
2023-05-20T14:07:24.022Z,7.4
2023-05-20T14:08:47.431Z,6.8
2023-05-20T14:10:10.841Z,6.9
2023-05-20T14:11:34.230Z,7.1
2023-05-20T14:12:56.667Z,7.1
2023-05-20T14:14:20.073Z,7
2023-05-20T14:15:43.485Z,7.1
2023-05-20T14:17:06.894Z,6.4
2023-05-20T14:18:30.284Z,6.8
2023-05-20T14:19:53.694Z,7.2
2023-05-20T14:21:17.106Z,6.7
2023-05-20T14:22:40.523Z,6.6
2023-05-20T14:24:03.921Z,7.1
2023-05-20T14:25:27.343Z,6.7
2023-05-20T14:26:50.737Z,6.5
2023-05-20T14:28:14.156Z,6.3
2023-05-20T14:29:37.565Z,6.9
2023-05-20T14:30:59.983Z,6.9
2023-05-20T14:32:23.401Z,6.6
2023-05-20T14:33:46.807Z,6.5
2023-05-20T14:35:10.214Z,6.5
2023-05-20T14:36:33.631Z,6.6
2023-05-20T14:37:57.034Z,6.1
2023-05-20T14:39:20.429Z,6.5
2023-05-20T14:40:43.845Z,5.9
2023-05-20T14:42:07.257Z,6.1
2023-05-20T14:43:30.667Z,5.7
2023-05-20T14:44:54.062Z,6.1
2023-05-20T14:46:17.472Z,6.5
2023-05-20T14:47:40.885Z,5.8
2023-05-20T14:49:03.311Z,5.9
2023-05-20T14:50:26.724Z,5.9
2023-05-20T14:51:50.123Z,5.7
2023-05-20T14:53:13.540Z,6
2023-05-20T14:54:36.953Z,6.4
2023-05-20T14:56:00.365Z,6
2023-05-20T14:57:23.773Z,5.8
2023-05-20T14:58:47.180Z,5.4
2023-05-20T15:00:10.590Z,6.1
2023-05-20T15:01:33.988Z,5.5
2023-05-20T15:04:20.809Z,5.6
2023-05-20T15:05:44.220Z,5.7
2023-05-20T15:07:06.635Z,5.8
2023-05-20T15:08:30.060Z,5.1
2023-05-20T15:09:53.466Z,5.5
2023-05-20T15:11:16.865Z,6.1
2023-05-20T15:12:40.277Z,5.5
2023-05-20T15:14:03.690Z,5.6
2023-05-20T15:15:27.094Z,5.2
2023-05-20T15:16:50.500Z,5.6
2023-05-20T15:18:13.910Z,5.2
2023-05-20T15:19:37.321Z,5.4
2023-05-20T15:21:00.726Z,5.4
2023-05-20T15:22:24.130Z,5
2023-05-20T15:23:47.537Z,5.5
2023-05-20T15:25:09.000Z,5.2
2023-05-20T15:26:33.375Z,5.5
2023-05-20T15:27:56.791Z,5.3
2023-05-20T15:29:20.194Z,5.8
2023-05-20T15:30:43.592Z,5.3
2023-05-20T15:32:07.002Z,5.9
2023-05-20T15:33:30.415Z,5.9
2023-05-20T15:34:53.815Z,5.5
2023-05-20T15:36:17.238Z,5.5
2023-05-20T15:37:40.647Z,5.9
2023-05-20T15:39:04.040Z,5.9
2023-05-20T15:40:27.455Z,5.6
2023-05-20T15:41:50.862Z,5.9
2023-05-20T15:43:13.290Z,5.6
2023-05-20T15:44:36.708Z,5.6
2023-05-20T15:46:00.102Z,5.6
2023-05-20T15:47:23.523Z,5.6
2023-05-20T15:48:46.921Z,5.4
2023-05-20T15:50:10.341Z,5.6
2023-05-20T15:51:33.744Z,5.4
2023-05-20T15:52:57.148Z,5.5
2023-05-20T15:54:20.565Z,5.6
2023-05-20T15:55:43.973Z,5.7
2023-05-20T15:57:07.390Z,5.5
2023-05-20T15:58:30.799Z,5.7
2023-05-20T15:59:54.201Z,5.3
2023-05-20T16:01:16.617Z,5.9
2023-05-20T16:02:40.025Z,5.6
2023-05-20T16:04:03.442Z,6.5
2023-05-20T16:05:26.843Z,5.8
2023-05-20T16:06:50.255Z,5.2
2023-05-20T16:08:13.675Z,5.6
2023-05-20T16:09:37.066Z,6
2023-05-20T16:11:00.477Z,6.3
2023-05-20T16:12:23.894Z,5.8
2023-05-20T16:13:47.298Z,5.5
2023-05-20T16:15:10.720Z,5.7
2023-05-20T16:16:34.130Z,5.8
2023-05-20T16:17:57.537Z,6.1
2023-05-20T16:19:19.948Z,5.6
2023-05-20T16:20:43.372Z,5.9
2023-05-20T16:22:06.768Z,5.8
2023-05-20T16:23:30.196Z,7
2023-05-20T16:24:53.602Z,6.1
2023-05-20T16:26:17.004Z,6.1
2023-05-20T16:27:39.428Z,6.1
2023-05-20T16:29:02.835Z,5.9
2023-05-20T16:30:26.246Z,6
2023-05-20T16:33:13.057Z,5.9
2023-05-20T16:34:36.474Z,6.1
2023-05-20T16:35:59.871Z,6.1
2023-05-20T16:37:23.295Z,6
2023-05-20T16:38:46.702Z,6
2023-05-20T16:40:10.097Z,6.2
2023-05-20T16:41:33.512Z,6.1
2023-05-20T16:42:56.928Z,6.2
2023-05-20T16:44:20.323Z,6.2
2023-05-20T16:45:42.756Z,6.7
2023-05-20T16:47:06.172Z,7.2
2023-05-20T16:48:29.579Z,6
2023-05-20T16:49:52.984Z,6.3
2023-05-20T16:51:16.391Z,6.3
2023-05-20T16:52:39.792Z,6.1
2023-05-20T16:54:03.210Z,6.2
2023-05-20T16:55:26.625Z,6.5
2023-05-20T16:56:50.021Z,6.6
2023-05-20T16:58:13.423Z,7.1
2023-05-20T16:59:36.839Z,6.5
2023-05-20T17:01:00.244Z,6.6
2023-05-20T17:02:23.657Z,6.7
2023-05-20T17:03:46.085Z,7.3
2023-05-20T17:05:09.487Z,6.9
2023-05-20T17:06:32.912Z,7.3
2023-05-20T17:07:56.301Z,7.6
2023-05-20T17:09:19.708Z,7.4
2023-05-20T17:10:43.119Z,6.8
2023-05-20T17:12:06.523Z,7
2023-05-20T17:13:29.944Z,7.1
2023-05-20T17:14:53.345Z,7.4
2023-05-20T17:16:16.758Z,7.6
2023-05-20T17:17:40.162Z,7.7
2023-05-20T17:19:03.573Z,7.6
2023-05-20T17:20:26.000Z,7.5
2023-05-20T17:21:49.417Z,7.6
2023-05-20T17:23:12.806Z,7.5
2023-05-20T17:24:36.225Z,7.7
2023-05-20T17:25:59.623Z,7.5
2023-05-20T17:27:23.040Z,7.5
2023-05-20T17:28:46.442Z,7.3
2023-05-20T17:30:09.851Z,7.9
2023-05-20T17:31:33.275Z,8
2023-05-20T17:32:56.673Z,7.7
2023-05-20T17:34:20.095Z,8
2023-05-20T17:35:43.497Z,8
2023-05-20T17:37:06.894Z,8.1
2023-05-20T17:38:30.318Z,7.9
2023-05-20T17:39:52.733Z,7.9
2023-05-20T17:41:16.138Z,8.4
2023-05-20T17:42:39.546Z,8.1
2023-05-20T17:44:02.959Z,8.5
2023-05-20T17:45:26.372Z,8.8
2023-05-20T17:46:49.781Z,8.3
2023-05-20T17:48:13.189Z,8.6
2023-05-20T17:49:36.596Z,8.8
2023-05-20T17:51:00.003Z,9.1
2023-05-20T17:52:23.401Z,8.8
2023-05-20T17:53:46.816Z,8.8
2023-05-20T17:55:10.229Z,8.5
2023-05-20T17:56:33.638Z,8.6
2023-05-20T17:57:56.000Z,9.6
2023-05-20T17:59:19.469Z,9.2
2023-05-20T18:00:42.880Z,8.9
2023-05-20T18:02:06.267Z,9.1
2023-05-20T18:03:29.689Z,9.4
2023-05-20T18:04:53.090Z,9.1
2023-05-20T18:06:16.515Z,9.5
2023-05-20T18:07:39.905Z,9.8
2023-05-20T18:09:03.333Z,9.4
2023-05-20T18:10:26.730Z,9.8
2023-05-20T18:11:50.140Z,9.5
2023-05-20T18:13:13.561Z,10.2
2023-05-20T18:14:36.967Z,9.4
2023-05-20T18:15:59.379Z,10.4
2023-05-20T18:17:22.794Z,9.1
2023-05-20T18:18:46.201Z,9.8
2023-05-20T18:20:09.613Z,9.2
2023-05-20T18:21:33.023Z,9.7
2023-05-20T18:22:56.433Z,9.7
2023-05-20T18:24:19.849Z,9.7
2023-05-20T18:25:43.237Z,10.5
2023-05-20T18:27:06.654Z,10.8
2023-05-20T18:28:30.064Z,9.2
2023-05-20T18:29:53.490Z,9.8
2023-05-20T18:31:16.886Z,10.1
2023-05-20T18:32:40.307Z,9.8
2023-05-20T18:34:02.724Z,9.3
2023-05-20T18:35:26.121Z,10.2
2023-05-20T18:36:49.531Z,10.1
2023-05-20T18:38:12.946Z,10.3
2023-05-20T18:39:36.346Z,10.3
2023-05-20T18:40:59.760Z,10.1
2023-05-20T18:42:23.170Z,10.3
2023-05-20T18:43:46.000Z,10.9
2023-05-20T18:45:09.986Z,9.8
2023-05-20T18:46:33.393Z,10.3
2023-05-20T18:47:56.815Z,9.8
2023-05-20T18:49:20.203Z,10.5
2023-05-20T18:50:43.623Z,10.3
2023-05-20T18:52:06.043Z,10
2023-05-20T18:54:52.870Z,10.5
2023-05-20T18:56:16.279Z,10.4
2023-05-20T18:57:39.686Z,10.7
2023-05-20T18:59:03.091Z,10.5
2023-05-20T19:00:26.489Z,10.6
2023-05-20T19:01:49.912Z,10.3
2023-05-20T19:03:13.322Z,10
2023-05-20T19:04:36.715Z,10.3
2023-05-20T19:06:00.142Z,10
2023-05-20T19:07:23.547Z,11
2023-05-20T19:08:46.959Z,11.1
2023-05-20T19:10:09.404Z,10.6
2023-05-20T19:11:32.802Z,10.3
2023-05-20T19:12:56.211Z,11.3
2023-05-20T19:14:19.618Z,11.2
2023-05-20T19:15:43.028Z,10.7
2023-05-20T19:17:06.443Z,10.8
2023-05-20T19:18:29.838Z,10.5
2023-05-20T19:19:53.264Z,11.1
2023-05-20T19:21:16.673Z,11.2
2023-05-20T19:22:40.076Z,11.2
2023-05-20T19:24:03.473Z,11.8
2023-05-20T19:25:26.884Z,11.7
2023-05-20T19:26:50.299Z,11.2
2023-05-20T19:28:12.715Z,11.8
2023-05-20T19:29:36.096Z,11.8
2023-05-20T19:30:59.559Z,11.6
2023-05-20T19:32:22.974Z,11.3
2023-05-20T19:33:46.372Z,11.5
2023-05-20T19:35:09.795Z,12.1
2023-05-20T19:36:33.229Z,12.2
2023-05-20T19:37:56.699Z,11.9
2023-05-20T19:39:20.141Z,11.8
2023-05-20T19:40:43.600Z,12
2023-05-20T19:42:07.044Z,11.9
2023-05-20T19:43:30.510Z,11
2023-05-20T19:44:53.954Z,11.4
2023-05-20T19:46:16.409Z,11.6
2023-05-20T19:47:39.864Z,11.5
2023-05-20T19:49:03.319Z,11.8
2023-05-20T19:50:26.776Z,12.1
2023-05-20T19:51:50.217Z,12.6
2023-05-20T19:53:13.684Z,12.6
2023-05-20T19:54:37.122Z,12
2023-05-20T19:56:00.570Z,12
2023-05-20T19:57:24.024Z,12.2
2023-05-20T19:58:47.000Z,11.9
2023-05-20T20:00:10.920Z,12.5
2023-05-20T20:01:34.385Z,11.7
2023-05-20T20:02:57.830Z,12.3
2023-05-20T20:04:20.291Z,12.8
2023-05-20T20:05:43.749Z,12.3
2023-05-20T20:07:07.199Z,12.9
2023-05-20T20:08:30.652Z,12.2
2023-05-20T20:09:54.101Z,12
2023-05-20T20:11:17.546Z,12.6
2023-05-20T20:12:40.993Z,12.8
2023-05-20T20:14:04.451Z,11.6
2023-05-20T20:15:27.883Z,12.1
2023-05-20T20:16:51.335Z,12.8
2023-05-20T20:18:14.783Z,12.5
2023-05-20T20:19:38.249Z,12.6
2023-05-20T20:21:01.695Z,12.8
2023-05-20T20:22:24.153Z,12.7
2023-05-20T20:23:47.620Z,12.5
2023-05-20T20:25:11.066Z,12.4
2023-05-20T20:26:34.503Z,12.4
2023-05-20T20:27:57.958Z,12.5
2023-05-20T20:29:21.404Z,12.4
2023-05-20T20:30:44.862Z,12.6
2023-05-20T20:32:08.307Z,12.8
2023-05-20T20:33:31.750Z,12.5
2023-05-20T20:34:55.218Z,12.8
2023-05-20T20:36:18.678Z,13.1
2023-05-20T20:37:42.107Z,13
2023-05-20T20:39:05.572Z,13
2023-05-20T20:40:28.031Z,13.2
2023-05-20T20:41:51.483Z,12.5
2023-05-20T20:43:14.925Z,12.9
2023-05-20T20:44:38.382Z,12.8
2023-05-20T20:46:01.824Z,13
2023-05-20T20:47:25.272Z,13.3
2023-05-20T20:48:48.725Z,13.1
2023-05-20T20:50:12.174Z,13
2023-05-20T20:51:35.620Z,13.3
2023-05-20T20:52:59.066Z,12.8
2023-05-20T20:54:22.520Z,12.8
2023-05-20T20:55:45.973Z,13.6
2023-05-20T20:57:09.419Z,13
2023-05-20T20:58:31.894Z,13
2023-05-20T20:59:55.336Z,13
2023-05-20T21:01:18.792Z,12.6
2023-05-20T21:02:42.235Z,13.6
2023-05-20T21:04:05.676Z,12.6
2023-05-20T21:05:29.146Z,13.3
2023-05-20T21:06:51.605Z,13.6
2023-05-20T21:08:15.059Z,13.7
2023-05-20T21:09:38.511Z,13.4
2023-05-20T21:11:01.950Z,13
2023-05-20T21:12:25.420Z,13
2023-05-20T21:13:48.866Z,13
2023-05-20T21:15:12.299Z,13
2023-05-20T21:16:35.767Z,12.6
2023-05-20T21:17:59.199Z,13.2
2023-05-20T21:19:22.663Z,13
2023-05-20T21:20:46.096Z,13.5
2023-05-20T21:22:09.559Z,13
2023-05-20T21:23:33.013Z,13
2023-05-20T21:24:55.470Z,12.7
2023-05-20T21:26:18.927Z,13
2023-05-20T21:27:42.374Z,12.9
2023-05-20T21:29:05.823Z,12.5
2023-05-20T21:30:29.274Z,12.5
2023-05-20T21:31:52.717Z,12.5
2023-05-20T21:33:16.189Z,13
2023-05-20T21:34:39.644Z,12.9
2023-05-20T21:36:03.092Z,12.8
2023-05-20T21:37:26.546Z,12.1
2023-05-20T21:38:49.981Z,12.7
2023-05-20T21:40:13.442Z,12.1
2023-05-20T21:41:36.893Z,12.4
2023-05-20T21:42:59.348Z,12.8
2023-05-20T21:44:22.807Z,13.1
2023-05-20T21:45:46.252Z,13.4
2023-05-20T21:47:09.694Z,11.8
2023-05-20T21:48:33.138Z,12.6
2023-05-20T21:49:56.592Z,12.6
2023-05-20T21:51:20.044Z,12.5
2023-05-20T21:52:43.499Z,12.2
2023-05-20T21:54:06.946Z,12
2023-05-20T21:55:30.392Z,12.4
2023-05-20T21:56:53.844Z,11.9
2023-05-20T21:58:17.295Z,12.5
2023-05-20T21:59:40.730Z,11.9
2023-05-20T22:15:03.041Z,7.8
2023-05-20T22:30:26.355Z,9.2
2023-05-20T22:45:49.667Z,7.9
2023-05-20T23:01:12.955Z,8.9
2023-05-20T23:16:36.256Z,9
2023-05-20T23:31:59.548Z,8.6
2023-05-20T23:47:22.849Z,8.8
